sensor_id;sensor_type;location;lat;lon;timestamp;P1;durP1;ratioP1;P2;durP2;ratioP2
49800;SDS011;35698;50.232;30.540;2023-02-19T00:00:48;7.73;;;2.99;;
49800;SDS011;35698;50.232;30.540;2023-02-19T00:01:59;6.74;;;2.88;;
49800;SDS011;35698;50.232;30.540;2023-02-19T00:03:02;7.74;;;3.11;;
49800;SDS011;35698;50.232;30.540;2023-02-19T00:04:18;7.29;;;3.42;;
49800;SDS011;35698;50.232;30.540;2023-02-19T00:05:22;6.85;;;2.87;;
49800;SDS011;35698;50.232;30.540;2023-02-19T00:06:34;7.32;;;2.94;;
49800;SDS011;35698;50.232;30.540;2023-02-19T00:07:38;10.15;;;3.30;;
49800;SDS011;35698;50.232;30.540;2023-02-19T00:08:41;9.93;;;3.62;;
49800;SDS011;35698;50.232;30.540;2023-02-19T00:09:45;11.04;;;3.49;;
49800;SDS011;35698;50.232;30.540;2023-02-19T00:11:07;9.14;;;3.26;;
49800;SDS011;35698;50.232;30.540;2023-02-19T00:12:21;8.58;;;3.32;;
49800;SDS011;35698;50.232;30.540;2023-02-19T00:13:24;6.57;;;3.08;;
49800;SDS011;35698;50.232;30.540;2023-02-19T00:14:27;8.09;;;3.29;;
49800;SDS011;35698;50.232;30.540;2023-02-19T00:15:31;5.98;;;2.89;;
49800;SDS011;35698;50.232;30.540;2023-02-19T00:16:53;11.93;;;3.74;;
49800;SDS011;35698;50.232;30.540;2023-02-19T00:18:04;7.73;;;3.32;;
49800;SDS011;35698;50.232;30.540;2023-02-19T00:19:11;6.85;;;2.98;;
49800;SDS011;35698;50.232;30.540;2023-02-19T00:20:24;8.23;;;3.61;;
49800;SDS011;35698;50.232;30.540;2023-02-19T00:21:27;6.31;;;3.01;;
49800;SDS011;35698;50.232;30.540;2023-02-19T00:22:57;7.33;;;3.21;;
49800;SDS011;35698;50.232;30.540;2023-02-19T00:24:02;7.43;;;3.18;;
49800;SDS011;35698;50.232;30.540;2023-02-19T00:25:07;7.68;;;3.17;;
49800;SDS011;35698;50.232;30.540;2023-02-19T00:26:18;8.72;;;3.43;;
49800;SDS011;35698;50.232;30.540;2023-02-19T00:27:22;7.72;;;3.31;;
49800;SDS011;35698;50.232;30.540;2023-02-19T00:28:25;9.54;;;2.91;;
49800;SDS011;35698;50.232;30.540;2023-02-19T00:29:29;6.31;;;3.22;;
49800;SDS011;35698;50.232;30.540;2023-02-19T00:30:50;7.90;;;3.39;;
49800;SDS011;35698;50.232;30.540;2023-02-19T00:32:02;6.03;;;2.91;;
49800;SDS011;35698;50.232;30.540;2023-02-19T00:33:05;9.03;;;3.50;;
49800;SDS011;35698;50.232;30.540;2023-02-19T00:34:09;8.06;;;3.39;;
49800;SDS011;35698;50.232;30.540;2023-02-19T00:35:13;5.47;;;3.17;;
49800;SDS011;35698;50.232;30.540;2023-02-19T00:36:37;6.82;;;3.36;;
49800;SDS011;35698;50.232;30.540;2023-02-19T00:37:42;6.92;;;3.02;;
49800;SDS011;35698;50.232;30.540;2023-02-19T00:38:45;8.96;;;3.37;;
49800;SDS011;35698;50.232;30.540;2023-02-19T00:39:57;5.42;;;2.92;;
49800;SDS011;35698;50.232;30.540;2023-02-19T00:41:01;8.53;;;3.34;;
49800;SDS011;35698;50.232;30.540;2023-02-19T00:42:12;8.68;;;3.08;;
49800;SDS011;35698;50.232;30.540;2023-02-19T00:43:16;6.89;;;2.62;;
49800;SDS011;35698;50.232;30.540;2023-02-19T00:44:19;9.48;;;3.12;;
49800;SDS011;35698;50.232;30.540;2023-02-19T00:45:30;5.71;;;2.83;;
49800;SDS011;35698;50.232;30.540;2023-02-19T00:46:38;8.10;;;2.94;;
49800;SDS011;35698;50.232;30.540;2023-02-19T00:47:51;8.63;;;2.85;;
49800;SDS011;35698;50.232;30.540;2023-02-19T00:48:55;6.65;;;3.38;;
49800;SDS011;35698;50.232;30.540;2023-02-19T00:50:07;6.69;;;2.79;;
49800;SDS011;35698;50.232;30.540;2023-02-19T00:51:10;5.35;;;3.01;;
49800;SDS011;35698;50.232;30.540;2023-02-19T00:52:22;7.20;;;3.07;;
49800;SDS011;35698;50.232;30.540;2023-02-19T00:53:25;7.16;;;2.69;;
49800;SDS011;35698;50.232;30.540;2023-02-19T00:54:29;7.64;;;2.73;;
49800;SDS011;35698;50.232;30.540;2023-02-19T00:55:32;6.82;;;2.82;;
49800;SDS011;35698;50.232;30.540;2023-02-19T00:56:43;7.35;;;3.04;;
49800;SDS011;35698;50.232;30.540;2023-02-19T00:57:47;7.05;;;2.44;;
49800;SDS011;35698;50.232;30.540;2023-02-19T00:58:51;7.21;;;2.71;;
49800;SDS011;35698;50.232;30.540;2023-02-19T00:59:54;9.38;;;3.20;;
49800;SDS011;35698;50.232;30.540;2023-02-19T01:01:08;7.42;;;2.79;;
49800;SDS011;35698;50.232;30.540;2023-02-19T01:02:13;8.27;;;2.78;;
49800;SDS011;35698;50.232;30.540;2023-02-19T01:03:16;4.63;;;2.50;;
49800;SDS011;35698;50.232;30.540;2023-02-19T01:04:19;5.37;;;2.89;;
49800;SDS011;35698;50.232;30.540;2023-02-19T01:05:23;7.84;;;3.13;;
49800;SDS011;35698;50.232;30.540;2023-02-19T01:06:34;8.93;;;2.73;;
49800;SDS011;35698;50.232;30.540;2023-02-19T01:07:38;7.56;;;3.04;;
49800;SDS011;35698;50.232;30.540;2023-02-19T01:08:41;7.32;;;3.10;;
49800;SDS011;35698;50.232;30.540;2023-02-19T01:09:53;11.99;;;3.85;;
49800;SDS011;35698;50.232;30.540;2023-02-19T01:10:57;7.83;;;3.84;;
49800;SDS011;35698;50.232;30.540;2023-02-19T01:12:08;9.63;;;2.84;;
49800;SDS011;35698;50.232;30.540;2023-02-19T01:13:12;7.78;;;2.86;;
49800;SDS011;35698;50.232;30.540;2023-02-19T01:14:16;7.05;;;2.62;;
49800;SDS011;35698;50.232;30.540;2023-02-19T01:15:38;7.29;;;2.44;;
49800;SDS011;35698;50.232;30.540;2023-02-19T01:16:49;10.44;;;3.67;;
49800;SDS011;35698;50.232;30.540;2023-02-19T01:17:52;7.99;;;3.31;;
49800;SDS011;35698;50.232;30.540;2023-02-19T01:18:56;6.46;;;2.44;;
49800;SDS011;35698;50.232;30.540;2023-02-19T01:20:19;7.98;;;2.71;;
49800;SDS011;35698;50.232;30.540;2023-02-19T01:21:30;6.24;;;2.81;;
49800;SDS011;35698;50.232;30.540;2023-02-19T01:22:33;8.91;;;2.66;;
49800;SDS011;35698;50.232;30.540;2023-02-19T01:23:37;6.14;;;2.88;;
49800;SDS011;35698;50.232;30.540;2023-02-19T01:27:17;7.83;;;2.75;;
49800;SDS011;35698;50.232;30.540;2023-02-19T01:28:20;7.14;;;2.61;;
49800;SDS011;35698;50.232;30.540;2023-02-19T01:29:23;13.74;;;3.38;;
49800;SDS011;35698;50.232;30.540;2023-02-19T01:30:45;9.49;;;3.39;;
49800;SDS011;35698;50.232;30.540;2023-02-19T01:32:06;7.36;;;3.09;;
49800;SDS011;35698;50.232;30.540;2023-02-19T01:33:27;7.51;;;2.52;;
49800;SDS011;35698;50.232;30.540;2023-02-19T01:34:39;6.80;;;2.69;;
49800;SDS011;35698;50.232;30.540;2023-02-19T01:35:42;7.76;;;2.92;;
49800;SDS011;35698;50.232;30.540;2023-02-19T01:36:53;8.06;;;2.86;;
49800;SDS011;35698;50.232;30.540;2023-02-19T01:37:56;5.00;;;2.66;;
49800;SDS011;35698;50.232;30.540;2023-02-19T01:39:03;8.22;;;2.95;;
49800;SDS011;35698;50.232;30.540;2023-02-19T01:40:08;6.52;;;2.61;;
49800;SDS011;35698;50.232;30.540;2023-02-19T01:41:30;7.34;;;2.86;;
49800;SDS011;35698;50.232;30.540;2023-02-19T01:42:44;7.56;;;2.63;;
49800;SDS011;35698;50.232;30.540;2023-02-19T01:43:58;7.44;;;2.53;;
49800;SDS011;35698;50.232;30.540;2023-02-19T01:45:23;5.23;;;2.31;;
49800;SDS011;35698;50.232;30.540;2023-02-19T01:46:43;5.63;;;2.42;;
49800;SDS011;35698;50.232;30.540;2023-02-19T01:47:55;5.49;;;2.48;;
49800;SDS011;35698;50.232;30.540;2023-02-19T01:49:11;8.59;;;2.68;;
49800;SDS011;35698;50.232;30.540;2023-02-19T01:50:17;7.41;;;2.58;;
49800;SDS011;35698;50.232;30.540;2023-02-19T01:51:48;6.73;;;2.53;;
49800;SDS011;35698;50.232;30.540;2023-02-19T01:53:05;6.14;;;3.01;;
49800;SDS011;35698;50.232;30.540;2023-02-19T01:54:29;6.67;;;2.47;;
49800;SDS011;35698;50.232;30.540;2023-02-19T01:55:43;6.92;;;3.13;;
49800;SDS011;35698;50.232;30.540;2023-02-19T01:57:06;6.67;;;2.51;;
49800;SDS011;35698;50.232;30.540;2023-02-19T01:58:19;9.41;;;2.95;;
49800;SDS011;35698;50.232;30.540;2023-02-19T01:59:23;11.59;;;2.99;;
49800;SDS011;35698;50.232;30.540;2023-02-19T02:00:28;7.20;;;2.81;;
49800;SDS011;35698;50.232;30.540;2023-02-19T02:01:39;6.93;;;2.58;;
49800;SDS011;35698;50.232;30.540;2023-02-19T02:02:44;8.32;;;2.47;;
49800;SDS011;35698;50.232;30.540;2023-02-19T02:03:57;8.92;;;2.64;;
49800;SDS011;35698;50.232;30.540;2023-02-19T02:05:02;9.64;;;3.26;;
49800;SDS011;35698;50.232;30.540;2023-02-19T02:06:25;5.04;;;2.46;;
49800;SDS011;35698;50.232;30.540;2023-02-19T02:07:39;6.05;;;2.66;;
49800;SDS011;35698;50.232;30.540;2023-02-19T02:08:43;9.74;;;3.08;;
49800;SDS011;35698;50.232;30.540;2023-02-19T02:10:04;8.97;;;2.46;;
49800;SDS011;35698;50.232;30.540;2023-02-19T02:11:16;6.08;;;3.15;;
49800;SDS011;35698;50.232;30.540;2023-02-19T02:12:20;7.28;;;2.72;;
49800;SDS011;35698;50.232;30.540;2023-02-19T02:13:41;4.77;;;2.81;;
49800;SDS011;35698;50.232;30.540;2023-02-19T02:14:53;6.67;;;2.63;;
49800;SDS011;35698;50.232;30.540;2023-02-19T02:16:03;5.31;;;2.59;;
49800;SDS011;35698;50.232;30.540;2023-02-19T02:17:55;7.87;;;2.28;;
49800;SDS011;35698;50.232;30.540;2023-02-19T02:22:35;7.76;;;2.68;;
49800;SDS011;35698;50.232;30.540;2023-02-19T02:24:07;6.69;;;2.74;;
49800;SDS011;35698;50.232;30.540;2023-02-19T02:31:34;7.43;;;2.74;;
49800;SDS011;35698;50.232;30.540;2023-02-19T02:32:53;9.42;;;3.48;;
49800;SDS011;35698;50.232;30.540;2023-02-19T02:35:22;7.69;;;2.82;;
49800;SDS011;35698;50.232;30.540;2023-02-19T02:36:39;8.06;;;3.43;;
49800;SDS011;35698;50.232;30.540;2023-02-19T02:37:45;7.83;;;2.79;;
49800;SDS011;35698;50.232;30.540;2023-02-19T02:38:58;6.89;;;2.93;;
49800;SDS011;35698;50.232;30.540;2023-02-19T02:40:04;9.74;;;3.33;;
49800;SDS011;35698;50.232;30.540;2023-02-19T02:41:16;6.59;;;2.38;;
49800;SDS011;35698;50.232;30.540;2023-02-19T02:42:20;7.95;;;2.82;;
49800;SDS011;35698;50.232;30.540;2023-02-19T02:43:31;6.59;;;3.19;;
49800;SDS011;35698;50.232;30.540;2023-02-19T02:44:36;8.98;;;3.24;;
49800;SDS011;35698;50.232;30.540;2023-02-19T02:45:40;8.05;;;3.74;;
49800;SDS011;35698;50.232;30.540;2023-02-19T02:46:51;5.41;;;2.76;;
49800;SDS011;35698;50.232;30.540;2023-02-19T02:47:55;8.70;;;2.96;;
49800;SDS011;35698;50.232;30.540;2023-02-19T02:49:02;5.53;;;2.96;;
49800;SDS011;35698;50.232;30.540;2023-02-19T02:50:08;9.31;;;3.21;;
49800;SDS011;35698;50.232;30.540;2023-02-19T02:51:30;7.25;;;2.90;;
49800;SDS011;35698;50.232;30.540;2023-02-19T02:52:36;8.51;;;3.69;;
49800;SDS011;35698;50.232;30.540;2023-02-19T02:56:32;7.89;;;3.74;;
49800;SDS011;35698;50.232;30.540;2023-02-19T02:57:55;10.11;;;3.29;;
49800;SDS011;35698;50.232;30.540;2023-02-19T02:59:07;7.68;;;3.46;;
49800;SDS011;35698;50.232;30.540;2023-02-19T03:00:13;8.73;;;3.23;;
49800;SDS011;35698;50.232;30.540;2023-02-19T03:01:40;8.18;;;3.79;;
49800;SDS011;35698;50.232;30.540;2023-02-19T03:02:53;10.83;;;3.74;;
49800;SDS011;35698;50.232;30.540;2023-02-19T03:04:02;8.51;;;3.44;;
49800;SDS011;35698;50.232;30.540;2023-02-19T03:05:29;7.60;;;3.31;;
49800;SDS011;35698;50.232;30.540;2023-02-19T03:06:40;7.76;;;3.54;;
49800;SDS011;35698;50.232;30.540;2023-02-19T03:07:46;8.77;;;3.90;;
49800;SDS011;35698;50.232;30.540;2023-02-19T03:09:22;8.72;;;3.67;;
49800;SDS011;35698;50.232;30.540;2023-02-19T03:12:14;8.77;;;3.63;;
49800;SDS011;35698;50.232;30.540;2023-02-19T03:13:27;9.01;;;4.26;;
49800;SDS011;35698;50.232;30.540;2023-02-19T03:14:51;8.02;;;3.72;;
49800;SDS011;35698;50.232;30.540;2023-02-19T03:18:55;14.28;;;5.07;;
49800;SDS011;35698;50.232;30.540;2023-02-19T03:20:20;6.57;;;3.14;;
49800;SDS011;35698;50.232;30.540;2023-02-19T03:21:34;8.13;;;3.50;;
49800;SDS011;35698;50.232;30.540;2023-02-19T03:22:40;10.39;;;4.56;;
49800;SDS011;35698;50.232;30.540;2023-02-19T03:23:46;10.04;;;5.23;;
49800;SDS011;35698;50.232;30.540;2023-02-19T03:24:59;11.25;;;4.88;;
49800;SDS011;35698;50.232;30.540;2023-02-19T03:26:12;7.76;;;3.09;;
49800;SDS011;35698;50.232;30.540;2023-02-19T03:27:18;7.78;;;3.23;;
49800;SDS011;35698;50.232;30.540;2023-02-19T03:28:32;8.32;;;3.44;;
49800;SDS011;35698;50.232;30.540;2023-02-19T03:29:38;8.08;;;3.27;;
49800;SDS011;35698;50.232;30.540;2023-02-19T03:30:46;8.52;;;3.69;;
49800;SDS011;35698;50.232;30.540;2023-02-19T03:32:10;7.24;;;3.23;;
49800;SDS011;35698;50.232;30.540;2023-02-19T03:33:13;11.67;;;4.60;;
49800;SDS011;35698;50.232;30.540;2023-02-19T03:34:21;11.09;;;4.58;;
49800;SDS011;35698;50.232;30.540;2023-02-19T03:35:35;7.36;;;3.49;;
49800;SDS011;35698;50.232;30.540;2023-02-19T03:36:51;12.08;;;4.03;;
49800;SDS011;35698;50.232;30.540;2023-02-19T03:38:21;9.77;;;3.29;;
49800;SDS011;35698;50.232;30.540;2023-02-19T03:39:26;7.59;;;3.31;;
49800;SDS011;35698;50.232;30.540;2023-02-19T03:43:31;7.47;;;3.66;;
49800;SDS011;35698;50.232;30.540;2023-02-19T03:44:41;8.27;;;3.31;;
49800;SDS011;35698;50.232;30.540;2023-02-19T03:46:13;7.51;;;3.03;;
49800;SDS011;35698;50.232;30.540;2023-02-19T03:50:28;7.96;;;3.48;;
49800;SDS011;35698;50.232;30.540;2023-02-19T03:52:00;9.34;;;3.89;;
49800;SDS011;35698;50.232;30.540;2023-02-19T03:56:07;7.34;;;3.06;;
49800;SDS011;35698;50.232;30.540;2023-02-19T03:57:24;7.52;;;3.83;;
49800;SDS011;35698;50.232;30.540;2023-02-19T04:01:26;12.19;;;3.78;;
49800;SDS011;35698;50.232;30.540;2023-02-19T04:02:45;9.09;;;3.95;;
49800;SDS011;35698;50.232;30.540;2023-02-19T04:03:51;7.48;;;3.77;;
49800;SDS011;35698;50.232;30.540;2023-02-19T04:08:28;9.86;;;3.59;;
49800;SDS011;35698;50.232;30.540;2023-02-19T04:09:43;7.04;;;3.41;;
49800;SDS011;35698;50.232;30.540;2023-02-19T04:11:08;7.16;;;4.02;;
49800;SDS011;35698;50.232;30.540;2023-02-19T04:12:20;9.57;;;3.48;;
49800;SDS011;35698;50.232;30.540;2023-02-19T04:13:44;8.40;;;3.72;;
49800;SDS011;35698;50.232;30.540;2023-02-19T04:15:02;9.42;;;4.04;;
49800;SDS011;35698;50.232;30.540;2023-02-19T04:16:18;9.67;;;4.14;;
49800;SDS011;35698;50.232;30.540;2023-02-19T04:17:43;11.39;;;4.64;;
49800;SDS011;35698;50.232;30.540;2023-02-19T04:19:01;8.89;;;4.29;;
49800;SDS011;35698;50.232;30.540;2023-02-19T04:20:26;12.51;;;5.04;;
49800;SDS011;35698;50.232;30.540;2023-02-19T04:21:42;11.10;;;5.07;;
49800;SDS011;35698;50.232;30.540;2023-02-19T04:23:05;9.32;;;4.53;;
49800;SDS011;35698;50.232;30.540;2023-02-19T04:24:11;12.28;;;5.51;;
49800;SDS011;35698;50.232;30.540;2023-02-19T04:25:26;9.81;;;3.76;;
49800;SDS011;35698;50.232;30.540;2023-02-19T04:26:50;10.34;;;4.40;;
49800;SDS011;35698;50.232;30.540;2023-02-19T04:28:03;10.95;;;5.11;;
49800;SDS011;35698;50.232;30.540;2023-02-19T04:29:25;10.06;;;3.93;;
49800;SDS011;35698;50.232;30.540;2023-02-19T04:30:36;8.29;;;3.89;;
49800;SDS011;35698;50.232;30.540;2023-02-19T04:31:57;7.85;;;3.89;;
49800;SDS011;35698;50.232;30.540;2023-02-19T04:33:08;6.13;;;3.17;;
49800;SDS011;35698;50.232;30.540;2023-02-19T04:34:30;6.76;;;3.20;;
49800;SDS011;35698;50.232;30.540;2023-02-19T04:35:33;8.20;;;3.45;;
49800;SDS011;35698;50.232;30.540;2023-02-19T04:36:45;7.82;;;3.23;;
49800;SDS011;35698;50.232;30.540;2023-02-19T04:57:20;5.16;;;2.64;;
49800;SDS011;35698;50.232;30.540;2023-02-19T04:58:31;8.43;;;4.51;;
49800;SDS011;35698;50.232;30.540;2023-02-19T04:59:34;5.45;;;2.91;;
49800;SDS011;35698;50.232;30.540;2023-02-19T05:00:38;6.03;;;3.54;;
49800;SDS011;35698;50.232;30.540;2023-02-19T05:01:49;8.35;;;3.75;;
49800;SDS011;35698;50.232;30.540;2023-02-19T05:02:53;7.84;;;3.65;;
49800;SDS011;35698;50.232;30.540;2023-02-19T05:03:56;8.47;;;3.66;;
49800;SDS011;35698;50.232;30.540;2023-02-19T05:05:00;8.04;;;4.45;;
49800;SDS011;35698;50.232;30.540;2023-02-19T05:06:18;9.64;;;4.50;;
49800;SDS011;35698;50.232;30.540;2023-02-19T05:07:21;9.89;;;3.51;;
49800;SDS011;35698;50.232;30.540;2023-02-19T05:08:34;6.59;;;3.20;;
49800;SDS011;35698;50.232;30.540;2023-02-19T05:09:38;8.22;;;3.50;;
49800;SDS011;35698;50.232;30.540;2023-02-19T05:10:49;7.03;;;3.81;;
49800;SDS011;35698;50.232;30.540;2023-02-19T05:11:52;6.31;;;2.99;;
49800;SDS011;35698;50.232;30.540;2023-02-19T05:13:03;5.12;;;3.14;;
49800;SDS011;35698;50.232;30.540;2023-02-19T05:14:07;9.25;;;3.26;;
49800;SDS011;35698;50.232;30.540;2023-02-19T05:15:10;8.48;;;4.01;;
49800;SDS011;35698;50.232;30.540;2023-02-19T05:16:21;7.11;;;2.88;;
49800;SDS011;35698;50.232;30.540;2023-02-19T05:17:25;8.35;;;3.82;;
49800;SDS011;35698;50.232;30.540;2023-02-19T05:18:29;7.87;;;3.46;;
49800;SDS011;35698;50.232;30.540;2023-02-19T05:19:33;8.41;;;3.88;;
49800;SDS011;35698;50.232;30.540;2023-02-19T05:20:36;9.38;;;3.45;;
49800;SDS011;35698;50.232;30.540;2023-02-19T05:21:47;9.45;;;4.37;;
49800;SDS011;35698;50.232;30.540;2023-02-19T05:22:51;9.56;;;4.69;;
49800;SDS011;35698;50.232;30.540;2023-02-19T05:23:54;9.25;;;4.40;;
49800;SDS011;35698;50.232;30.540;2023-02-19T05:24:57;7.21;;;4.09;;
49800;SDS011;35698;50.232;30.540;2023-02-19T05:26:16;9.43;;;5.13;;
49800;SDS011;35698;50.232;30.540;2023-02-19T05:27:21;12.61;;;4.87;;
49800;SDS011;35698;50.232;30.540;2023-02-19T05:28:25;9.48;;;3.78;;
49800;SDS011;35698;50.232;30.540;2023-02-19T05:29:36;12.11;;;5.01;;
49800;SDS011;35698;50.232;30.540;2023-02-19T05:30:39;10.66;;;4.87;;
49800;SDS011;35698;50.232;30.540;2023-02-19T05:31:50;10.97;;;5.05;;
49800;SDS011;35698;50.232;30.540;2023-02-19T05:32:54;10.58;;;4.85;;
49800;SDS011;35698;50.232;30.540;2023-02-19T05:34:00;8.54;;;4.79;;
49800;SDS011;35698;50.232;30.540;2023-02-19T05:35:11;8.61;;;4.04;;
49800;SDS011;35698;50.232;30.540;2023-02-19T05:36:15;7.10;;;3.51;;
49800;SDS011;35698;50.232;30.540;2023-02-19T05:37:27;8.69;;;4.12;;
49800;SDS011;35698;50.232;30.540;2023-02-19T05:38:31;6.71;;;3.20;;
49800;SDS011;35698;50.232;30.540;2023-02-19T05:41:05;5.67;;;3.05;;
49800;SDS011;35698;50.232;30.540;2023-02-19T05:42:18;6.04;;;3.21;;
49800;SDS011;35698;50.232;30.540;2023-02-19T05:43:21;8.00;;;3.21;;
49800;SDS011;35698;50.232;30.540;2023-02-19T05:44:43;6.25;;;3.17;;
49800;SDS011;35698;50.232;30.540;2023-02-19T05:46:05;6.84;;;3.16;;
49800;SDS011;35698;50.232;30.540;2023-02-19T05:47:17;6.41;;;3.52;;
49800;SDS011;35698;50.232;30.540;2023-02-19T05:48:21;5.27;;;3.31;;
49800;SDS011;35698;50.232;30.540;2023-02-19T05:49:42;8.39;;;3.34;;
49800;SDS011;35698;50.232;30.540;2023-02-19T05:51:05;6.95;;;3.22;;
49800;SDS011;35698;50.232;30.540;2023-02-19T05:52:18;9.27;;;3.88;;
49800;SDS011;35698;50.232;30.540;2023-02-19T05:53:22;6.61;;;4.05;;
49800;SDS011;35698;50.232;30.540;2023-02-19T05:54:44;8.26;;;3.62;;
49800;SDS011;35698;50.232;30.540;2023-02-19T05:57:42;7.54;;;3.51;;
49800;SDS011;35698;50.232;30.540;2023-02-19T05:58:47;7.72;;;3.71;;
49800;SDS011;35698;50.232;30.540;2023-02-19T06:00:10;9.08;;;3.43;;
49800;SDS011;35698;50.232;30.540;2023-02-19T06:01:33;8.43;;;3.06;;
49800;SDS011;35698;50.232;30.540;2023-02-19T06:02:45;7.86;;;2.88;;
49800;SDS011;35698;50.232;30.540;2023-02-19T06:03:49;7.09;;;3.14;;
49800;SDS011;35698;50.232;30.540;2023-02-19T06:05:11;4.89;;;2.93;;
49800;SDS011;35698;50.232;30.540;2023-02-19T06:06:23;6.53;;;3.22;;
49800;SDS011;35698;50.232;30.540;2023-02-19T06:07:27;6.17;;;3.12;;
49800;SDS011;35698;50.232;30.540;2023-02-19T06:08:40;8.28;;;3.09;;
49800;SDS011;35698;50.232;30.540;2023-02-19T06:09:44;6.79;;;2.88;;
49800;SDS011;35698;50.232;30.540;2023-02-19T06:10:47;5.36;;;2.58;;
49800;SDS011;35698;50.232;30.540;2023-02-19T06:31:22;5.84;;;3.25;;
49800;SDS011;35698;50.232;30.540;2023-02-19T06:32:33;6.47;;;2.68;;
49800;SDS011;35698;50.232;30.540;2023-02-19T06:33:37;5.39;;;2.86;;
49800;SDS011;35698;50.232;30.540;2023-02-19T06:34:41;5.02;;;2.40;;
49800;SDS011;35698;50.232;30.540;2023-02-19T06:35:44;8.58;;;3.14;;
49800;SDS011;35698;50.232;30.540;2023-02-19T06:36:56;6.92;;;3.04;;
49800;SDS011;35698;50.232;30.540;2023-02-19T06:38:00;5.65;;;2.94;;
49800;SDS011;35698;50.232;30.540;2023-02-19T06:39:04;6.01;;;2.94;;
49800;SDS011;35698;50.232;30.540;2023-02-19T06:40:08;8.94;;;3.08;;
49800;SDS011;35698;50.232;30.540;2023-02-19T06:41:11;7.58;;;3.21;;
49800;SDS011;35698;50.232;30.540;2023-02-19T06:42:23;6.57;;;2.94;;
49800;SDS011;35698;50.232;30.540;2023-02-19T06:43:26;7.35;;;3.17;;
49800;SDS011;35698;50.232;30.540;2023-02-19T06:44:30;5.91;;;3.02;;
49800;SDS011;35698;50.232;30.540;2023-02-19T06:45:33;7.80;;;3.21;;
49800;SDS011;35698;50.232;30.540;2023-02-19T06:46:37;9.67;;;3.42;;
49800;SDS011;35698;50.232;30.540;2023-02-19T06:47:48;7.96;;;3.26;;
49800;SDS011;35698;50.232;30.540;2023-02-19T06:48:51;7.23;;;2.67;;
49800;SDS011;35698;50.232;30.540;2023-02-19T06:49:55;6.42;;;3.25;;
49800;SDS011;35698;50.232;30.540;2023-02-19T06:51:06;8.17;;;3.13;;
49800;SDS011;35698;50.232;30.540;2023-02-19T06:52:10;5.41;;;2.70;;
49800;SDS011;35698;50.232;30.540;2023-02-19T06:53:21;5.30;;;2.83;;
49800;SDS011;35698;50.232;30.540;2023-02-19T06:54:25;5.94;;;3.16;;
49800;SDS011;35698;50.232;30.540;2023-02-19T06:55:32;5.09;;;3.25;;
49800;SDS011;35698;50.232;30.540;2023-02-19T06:56:43;8.04;;;3.57;;
49800;SDS011;35698;50.232;30.540;2023-02-19T06:57:49;7.13;;;3.03;;
49800;SDS011;35698;50.232;30.540;2023-02-19T06:59:03;4.92;;;2.67;;
49800;SDS011;35698;50.232;30.540;2023-02-19T07:00:28;4.26;;;2.57;;
49800;SDS011;35698;50.232;30.540;2023-02-19T07:01:50;5.68;;;3.39;;
49800;SDS011;35698;50.232;30.540;2023-02-19T07:02:54;7.36;;;3.95;;
49800;SDS011;35698;50.232;30.540;2023-02-19T07:04:00;8.13;;;3.72;;
49800;SDS011;35698;50.232;30.540;2023-02-19T07:05:11;6.66;;;3.97;;
49800;SDS011;35698;50.232;30.540;2023-02-19T07:06:15;7.83;;;3.47;;
49800;SDS011;35698;50.232;30.540;2023-02-19T07:07:26;7.73;;;3.44;;
49800;SDS011;35698;50.232;30.540;2023-02-19T07:08:29;5.99;;;3.47;;
49800;SDS011;35698;50.232;30.540;2023-02-19T07:09:33;7.20;;;2.86;;
49800;SDS011;35698;50.232;30.540;2023-02-19T07:10:36;9.16;;;3.51;;
49800;SDS011;35698;50.232;30.540;2023-02-19T07:11:57;6.14;;;2.93;;
49800;SDS011;35698;50.232;30.540;2023-02-19T07:13:09;7.09;;;3.12;;
49800;SDS011;35698;50.232;30.540;2023-02-19T07:14:13;10.21;;;3.19;;
49800;SDS011;35698;50.232;30.540;2023-02-19T07:15:18;8.87;;;3.47;;
49800;SDS011;35698;50.232;30.540;2023-02-19T07:16:29;7.16;;;3.23;;
49800;SDS011;35698;50.232;30.540;2023-02-19T07:17:33;8.20;;;3.13;;
49800;SDS011;35698;50.232;30.540;2023-02-19T07:18:36;7.43;;;2.88;;
49800;SDS011;35698;50.232;30.540;2023-02-19T07:19:41;6.79;;;3.38;;
49800;SDS011;35698;50.232;30.540;2023-02-19T07:22:16;6.81;;;2.80;;
49800;SDS011;35698;50.232;30.540;2023-02-19T07:23:20;6.60;;;3.19;;
49800;SDS011;35698;50.232;30.540;2023-02-19T07:24:23;8.29;;;3.82;;
49800;SDS011;35698;50.232;30.540;2023-02-19T07:25:27;5.29;;;2.65;;
49800;SDS011;35698;50.232;30.540;2023-02-19T07:26:48;7.67;;;3.37;;
49800;SDS011;35698;50.232;30.540;2023-02-19T07:27:59;8.94;;;3.57;;
49800;SDS011;35698;50.232;30.540;2023-02-19T07:29:03;6.72;;;3.58;;
49800;SDS011;35698;50.232;30.540;2023-02-19T07:30:07;7.26;;;3.14;;
49800;SDS011;35698;50.232;30.540;2023-02-19T07:31:11;6.76;;;2.84;;
49800;SDS011;35698;50.232;30.540;2023-02-19T07:32:33;5.74;;;3.04;;
49800;SDS011;35698;50.232;30.540;2023-02-19T07:33:45;6.17;;;2.64;;
49800;SDS011;35698;50.232;30.540;2023-02-19T07:34:49;3.98;;;2.39;;
49800;SDS011;35698;50.232;30.540;2023-02-19T07:35:52;6.14;;;3.06;;
49800;SDS011;35698;50.232;30.540;2023-02-19T07:37:03;6.46;;;2.98;;
49800;SDS011;35698;50.232;30.540;2023-02-19T07:38:07;7.65;;;3.17;;
49800;SDS011;35698;50.232;30.540;2023-02-19T07:39:10;7.09;;;3.19;;
49800;SDS011;35698;50.232;30.540;2023-02-19T07:40:15;9.51;;;2.95;;
49800;SDS011;35698;50.232;30.540;2023-02-19T07:41:27;8.00;;;3.37;;
49800;SDS011;35698;50.232;30.540;2023-02-19T07:42:30;5.66;;;2.93;;
49800;SDS011;35698;50.232;30.540;2023-02-19T07:43:41;7.15;;;3.26;;
49800;SDS011;35698;50.232;30.540;2023-02-19T07:44:45;3.87;;;2.62;;
49800;SDS011;35698;50.232;30.540;2023-02-19T07:45:51;6.50;;;2.84;;
49800;SDS011;35698;50.232;30.540;2023-02-19T07:46:55;5.88;;;2.39;;
49800;SDS011;35698;50.232;30.540;2023-02-19T07:48:06;9.21;;;3.20;;
49800;SDS011;35698;50.232;30.540;2023-02-19T07:49:09;6.56;;;3.07;;
49800;SDS011;35698;50.232;30.540;2023-02-19T07:50:20;8.22;;;2.91;;
49800;SDS011;35698;50.232;30.540;2023-02-19T07:51:24;6.64;;;2.67;;
49800;SDS011;35698;50.232;30.540;2023-02-19T07:52:35;9.43;;;2.51;;
49800;SDS011;35698;50.232;30.540;2023-02-19T07:53:38;4.23;;;2.34;;
49800;SDS011;35698;50.232;30.540;2023-02-19T07:54:50;8.08;;;3.18;;
49800;SDS011;35698;50.232;30.540;2023-02-19T07:55:54;6.50;;;2.61;;
49800;SDS011;35698;50.232;30.540;2023-02-19T07:57:11;5.30;;;2.15;;
49800;SDS011;35698;50.232;30.540;2023-02-19T07:58:15;6.38;;;2.56;;
49800;SDS011;35698;50.232;30.540;2023-02-19T07:59:37;5.89;;;3.20;;
49800;SDS011;35698;50.232;30.540;2023-02-19T08:00:40;5.34;;;2.32;;
49800;SDS011;35698;50.232;30.540;2023-02-19T08:01:52;7.31;;;2.98;;
49800;SDS011;35698;50.232;30.540;2023-02-19T08:02:55;6.42;;;2.33;;
49800;SDS011;35698;50.232;30.540;2023-02-19T08:04:06;8.95;;;2.63;;
49800;SDS011;35698;50.232;30.540;2023-02-19T08:05:11;4.77;;;2.10;;
49800;SDS011;35698;50.232;30.540;2023-02-19T08:06:14;6.18;;;3.04;;
49800;SDS011;35698;50.232;30.540;2023-02-19T08:07:32;6.69;;;2.84;;
49800;SDS011;35698;50.232;30.540;2023-02-19T08:08:37;5.88;;;2.54;;
49800;SDS011;35698;50.232;30.540;2023-02-19T08:09:41;5.69;;;2.17;;
49800;SDS011;35698;50.232;30.540;2023-02-19T08:10:44;12.29;;;2.61;;
49800;SDS011;35698;50.232;30.540;2023-02-19T08:11:55;5.69;;;2.47;;
49800;SDS011;35698;50.232;30.540;2023-02-19T08:12:59;6.95;;;2.06;;
49800;SDS011;35698;50.232;30.540;2023-02-19T08:14:11;8.10;;;2.32;;
49800;SDS011;35698;50.232;30.540;2023-02-19T08:15:14;4.71;;;2.45;;
49800;SDS011;35698;50.232;30.540;2023-02-19T08:16:26;6.07;;;2.35;;